createdAt,value
2023-04-16T00:01:02.730Z,93.48
2023-04-16T00:03:00.147Z,93.37
2023-04-16T00:04:53.304Z,93.63
2023-04-16T00:06:46.535Z,93.57
2023-04-16T00:08:41.371Z,93.66
2023-04-16T00:10:35.349Z,93.73
2023-04-16T00:12:29.032Z,93.63
2023-04-16T00:14:22.234Z,93.80
2023-04-16T00:16:15.540Z,93.68
2023-04-16T00:18:08.668Z,93.86
2023-04-16T00:20:01.698Z,93.77
2023-04-16T00:21:54.638Z,93.88
2023-04-16T00:23:47.611Z,94.03
2023-04-16T00:25:40.669Z,94.18
2023-04-16T00:27:33.706Z,94.13
2023-04-16T00:29:29.124Z,94.09
2023-04-16T00:31:29.625Z,94.13
2023-04-16T00:33:22.979Z,94.06
2023-04-16T00:35:16.052Z,94.20
2023-04-16T00:37:08.977Z,94.18
2023-04-16T00:39:01.966Z,94.17
2023-04-16T00:40:54.899Z,94.33
2023-04-16T00:42:47.935Z,94.35
2023-04-16T00:44:41.084Z,94.22
2023-04-16T00:46:35.109Z,94.39
2023-04-16T00:48:28.394Z,94.41
2023-04-16T00:50:21.892Z,94.28
2023-04-16T00:52:15.124Z,94.32
2023-04-16T00:54:08.294Z,94.21
2023-04-16T00:56:04.222Z,94.37
2023-04-16T00:57:57.176Z,94.29
2023-04-16T00:59:50.091Z,94.27
2023-04-16T01:01:43.437Z,94.26
2023-04-16T01:03:43.762Z,94.51
2023-04-16T01:05:37.128Z,94.35
2023-04-16T01:07:30.178Z,94.43
2023-04-16T01:09:23.023Z,94.19
2023-04-16T01:11:16.483Z,94.47
2023-04-16T01:13:09.432Z,94.24
2023-04-16T01:15:03.017Z,94.28
2023-04-16T01:16:56.560Z,94.34
2023-04-16T01:18:49.618Z,94.30
2023-04-16T01:20:42.702Z,94.30
2023-04-16T01:22:35.613Z,94.27
2023-04-16T01:24:28.458Z,94.16
2023-04-16T01:26:21.613Z,94.08
2023-04-16T01:28:14.557Z,94.33
2023-04-16T01:30:08.221Z,94.41
2023-04-16T01:32:12.346Z,94.31
2023-04-16T01:34:07.160Z,94.46
2023-04-16T01:36:00.592Z,94.45
2023-04-16T01:37:53.630Z,94.45
2023-04-16T01:39:46.482Z,94.42
2023-04-16T01:41:39.529Z,94.58
2023-04-16T01:43:32.485Z,94.44
2023-04-16T01:45:25.895Z,94.52
2023-04-16T01:47:18.826Z,94.60
2023-04-16T01:49:12.194Z,94.70
2023-04-16T01:51:05.540Z,94.63
2023-04-16T01:52:58.447Z,94.74
2023-04-16T01:54:51.293Z,94.61
2023-04-16T01:56:44.142Z,94.74
2023-04-16T01:58:37.298Z,94.76
2023-04-16T02:00:30.552Z,94.70
2023-04-16T02:02:28.318Z,94.92
2023-04-16T02:04:21.777Z,94.73
2023-04-16T02:06:15.121Z,94.94
2023-04-16T02:08:07.973Z,94.83
2023-04-16T02:10:01.547Z,94.85
2023-04-16T02:11:54.992Z,94.86
2023-04-16T02:13:47.849Z,94.80
2023-04-16T02:15:45.796Z,94.78
2023-04-16T02:17:38.785Z,94.89
2023-04-16T02:19:34.878Z,94.69
2023-04-16T02:21:28.038Z,94.80
2023-04-16T02:23:20.875Z,94.96
2023-04-16T02:25:16.889Z,94.82
2023-04-16T02:27:10.044Z,94.71
2023-04-16T02:29:03.822Z,94.85
2023-04-16T02:31:03.115Z,94.87
2023-04-16T02:32:59.200Z,94.74
2023-04-16T02:34:52.892Z,94.86
2023-04-16T02:36:45.843Z,94.77
2023-04-16T02:38:38.795Z,94.74
2023-04-16T02:40:32.261Z,94.82
2023-04-16T02:42:25.927Z,94.91
2023-04-16T02:44:18.864Z,94.98
2023-04-16T02:46:12.266Z,94.90
2023-04-16T02:48:07.338Z,95.04
2023-04-16T02:50:00.163Z,94.83
2023-04-16T02:51:53.010Z,95.00
2023-04-16T02:53:46.241Z,94.97
2023-04-16T02:55:39.942Z,95.05
2023-04-16T02:57:34.108Z,94.99
2023-04-16T02:59:27.162Z,95.01
2023-04-16T03:01:20.040Z,94.93
2023-04-16T03:03:13.848Z,95.07
2023-04-16T03:05:07.231Z,94.94
2023-04-16T03:07:00.114Z,94.97
2023-04-16T03:08:53.025Z,94.92
2023-04-16T03:10:45.975Z,94.93
2023-04-16T03:12:40.867Z,95.11
2023-04-16T03:14:34.229Z,95.02
2023-04-16T03:16:27.176Z,94.95
2023-04-16T03:18:20.126Z,94.91
2023-04-16T03:20:17.209Z,95.09
2023-04-16T03:22:10.218Z,94.86
2023-04-16T03:24:03.168Z,95.05
2023-04-16T03:25:56.121Z,95.01
2023-04-16T03:27:49.140Z,94.99
2023-04-16T03:29:42.629Z,95.12
2023-04-16T03:31:36.401Z,95.25
2023-04-16T03:33:29.649Z,95.19
2023-04-16T03:35:22.511Z,95.16
2023-04-16T03:37:15.670Z,95.24
2023-04-16T03:39:08.728Z,95.40
2023-04-16T03:41:02.261Z,95.81
2023-04-16T03:42:56.755Z,95.87
2023-04-16T03:44:49.895Z,95.91
2023-04-16T03:46:43.353Z,96.12
2023-04-16T03:48:36.716Z,96.15
2023-04-16T03:50:29.950Z,96.22
2023-04-16T03:52:22.930Z,96.32
2023-04-16T03:54:15.874Z,96.32
2023-04-16T03:56:10.349Z,96.34
2023-04-16T03:58:05.046Z,96.35
2023-04-16T03:59:58.400Z,96.25
2023-04-16T04:01:52.787Z,96.36
2023-04-16T04:03:46.126Z,96.35
2023-04-16T04:05:41.210Z,96.21
2023-04-16T04:07:35.208Z,96.08
2023-04-16T04:09:28.878Z,96.10
2023-04-16T04:11:21.925Z,96.10
2023-04-16T04:13:14.871Z,95.96
2023-04-16T04:15:09.103Z,96.07
2023-04-16T04:17:02.001Z,95.83
2023-04-16T04:18:55.767Z,95.93
2023-04-16T04:20:48.927Z,95.84
2023-04-16T04:22:43.198Z,95.72
2023-04-16T04:24:37.989Z,95.50
2023-04-16T04:26:30.981Z,95.67
2023-04-16T04:28:23.998Z,95.56
2023-04-16T04:30:16.939Z,95.77
2023-04-16T04:32:09.983Z,95.59
2023-04-16T04:34:02.936Z,95.63
2023-04-16T04:35:56.017Z,95.50
2023-04-16T04:37:49.210Z,95.58
2023-04-16T04:39:44.859Z,95.54
2023-04-16T04:41:38.209Z,95.70
2023-04-16T04:43:31.360Z,95.59
2023-04-16T04:45:25.770Z,95.59
2023-04-16T04:47:19.535Z,95.49
2023-04-16T04:49:12.456Z,95.42
2023-04-16T04:51:05.714Z,95.22
2023-04-16T04:52:58.766Z,95.31
2023-04-16T04:54:52.842Z,95.34
2023-04-16T04:56:46.616Z,95.26
2023-04-16T04:58:41.195Z,95.21
2023-04-16T05:00:34.860Z,95.13
2023-04-16T05:02:28.162Z,95.12
2023-04-16T05:04:21.161Z,95.00
2023-04-16T05:06:14.110Z,94.93
2023-04-16T05:08:07.472Z,94.75
2023-04-16T05:10:00.835Z,94.67
2023-04-16T05:11:53.780Z,94.38
2023-04-16T05:13:46.724Z,94.38
2023-04-16T05:15:40.186Z,94.14
2023-04-16T05:17:33.057Z,93.98
2023-04-16T05:19:25.987Z,93.99
2023-04-16T05:21:18.940Z,93.92
2023-04-16T05:23:11.785Z,94.04
2023-04-16T05:25:05.458Z,93.81
2023-04-16T05:26:58.387Z,93.82
2023-04-16T05:28:51.344Z,93.84
2023-04-16T05:30:44.220Z,93.54
2023-04-16T05:32:37.455Z,93.44
2023-04-16T05:34:30.893Z,93.54
2023-04-16T05:36:23.701Z,93.68
2023-04-16T05:38:16.589Z,93.58
2023-04-16T05:40:10.005Z,93.68
2023-04-16T05:42:03.027Z,93.90
2023-04-16T05:43:56.370Z,93.58
2023-04-16T05:45:49.268Z,93.44
2023-04-16T05:47:42.303Z,93.56
2023-04-16T05:49:37.438Z,93.65
2023-04-16T05:51:30.291Z,93.59
2023-04-16T05:53:23.963Z,93.60
2023-04-16T05:55:16.803Z,93.51
2023-04-16T05:57:09.752Z,93.61
2023-04-16T05:59:02.910Z,93.82
2023-04-16T06:00:56.261Z,93.89
2023-04-16T06:02:49.563Z,93.67
2023-04-16T06:04:42.569Z,93.53
2023-04-16T06:06:37.487Z,93.57
2023-04-16T06:08:30.313Z,93.79
2023-04-16T06:10:23.266Z,93.66
2023-04-16T06:12:16.515Z,93.81
2023-04-16T06:14:09.390Z,94.08
2023-04-16T06:16:02.363Z,93.83
2023-04-16T06:17:56.304Z,93.89
2023-04-16T06:19:49.225Z,93.68
2023-04-16T06:21:42.173Z,93.62
2023-04-16T06:23:35.019Z,93.72
2023-04-16T06:25:27.873Z,93.92
2023-04-16T06:27:20.916Z,93.72
2023-04-16T06:29:13.867Z,93.69
2023-04-16T06:31:06.843Z,93.51
2023-04-16T06:33:00.117Z,93.40
2023-04-16T06:34:54.502Z,93.30
2023-04-16T06:36:49.089Z,93.28
2023-04-16T06:38:45.055Z,93.14
2023-04-16T06:40:38.002Z,92.92
2023-04-16T06:42:31.259Z,93.16
2023-04-16T06:44:24.207Z,93.23
2023-04-16T06:46:17.167Z,93.21
2023-04-16T06:48:10.103Z,93.27
2023-04-16T06:50:03.049Z,93.21
2023-04-16T06:51:56.521Z,93.09
2023-04-16T06:53:49.772Z,92.99
2023-04-16T06:55:42.617Z,93.10
2023-04-16T06:57:37.477Z,93.14
2023-04-16T06:59:30.659Z,93.22
2023-04-16T07:01:23.995Z,92.97
2023-04-16T07:03:17.396Z,93.09
2023-04-16T07:05:11.375Z,93.01
2023-04-16T07:07:05.443Z,93.13
2023-04-16T07:08:58.747Z,93.36
2023-04-16T07:10:53.889Z,93.37
2023-04-16T07:12:47.854Z,93.42
2023-04-16T07:14:41.820Z,93.07
2023-04-16T07:16:34.835Z,93.22
2023-04-16T07:18:28.131Z,93.22
2023-04-16T07:20:21.592Z,93.07
2023-04-16T07:22:14.640Z,93.35
2023-04-16T07:24:07.694Z,93.43
2023-04-16T07:26:00.875Z,93.59
2023-04-16T07:27:53.798Z,93.50
2023-04-16T07:29:47.045Z,93.16
2023-04-16T07:31:40.211Z,93.20
2023-04-16T07:33:33.146Z,93.24
2023-04-16T07:35:26.098Z,93.08
2023-04-16T07:37:19.046Z,93.03
2023-04-16T07:39:13.427Z,92.87
2023-04-16T07:41:06.475Z,92.94
2023-04-16T07:42:59.741Z,92.80
2023-04-16T07:44:52.572Z,92.74
2023-04-16T07:46:47.369Z,92.81
2023-04-16T07:48:41.032Z,92.72
2023-04-16T07:50:33.890Z,92.76
2023-04-16T07:52:27.033Z,92.24
2023-04-16T07:54:20.490Z,92.52
2023-04-16T07:56:16.283Z,92.49
2023-04-16T07:58:09.830Z,92.79
2023-04-16T08:00:05.096Z,92.47
2023-04-16T08:02:06.496Z,92.23
2023-04-16T08:03:59.755Z,92.10
2023-04-16T08:05:53.130Z,92.01
2023-04-16T08:07:46.293Z,91.57
2023-04-16T08:09:48.872Z,91.66
2023-04-16T08:11:41.806Z,91.28
2023-04-16T08:13:35.061Z,90.97
2023-04-16T08:15:28.070Z,91.09
2023-04-16T08:17:21.414Z,90.52
2023-04-16T08:19:14.313Z,90.07
2023-04-16T08:21:07.265Z,90.20
2023-04-16T08:23:00.154Z,90.15
2023-04-16T08:24:53.061Z,90.23
2023-04-16T08:26:46.017Z,89.84
2023-04-16T08:28:39.859Z,90.56
2023-04-16T08:30:32.727Z,90.57
2023-04-16T08:32:29.055Z,90.12
2023-04-16T08:34:22.096Z,89.92
2023-04-16T08:36:15.360Z,89.58
2023-04-16T08:38:08.312Z,89.15
2023-04-16T08:40:02.509Z,88.93
2023-04-16T08:41:57.073Z,88.07
2023-04-16T08:43:56.446Z,87.77
2023-04-16T08:45:49.623Z,87.80
2023-04-16T08:47:47.841Z,87.78
2023-04-16T08:49:46.257Z,87.68
2023-04-16T08:51:42.993Z,87.40
2023-04-16T08:53:41.445Z,87.33
2023-04-16T08:55:37.510Z,87.37
2023-04-16T08:57:44.639Z,87.37
2023-04-16T08:59:40.159Z,86.86
2023-04-16T09:01:34.329Z,87.46
2023-04-16T09:03:29.663Z,86.27
2023-04-16T09:05:25.924Z,85.76
2023-04-16T09:07:20.893Z,85.54
2023-04-16T09:09:15.069Z,84.45
2023-04-16T09:11:07.873Z,84.90
2023-04-16T09:13:01.544Z,83.97
2023-04-16T09:14:57.308Z,84.19
2023-04-16T09:16:53.282Z,82.61
2023-04-16T09:18:48.000Z,81.50
2023-04-16T09:20:40.952Z,81.33
2023-04-16T09:22:34.103Z,80.79
2023-04-16T09:24:27.256Z,81.60
2023-04-16T09:26:21.964Z,82.06
2023-04-16T09:28:42.233Z,81.53
2023-04-16T09:30:35.127Z,80.75
2023-04-16T09:32:29.298Z,80.87
2023-04-16T09:34:22.515Z,80.31
2023-04-16T09:36:23.723Z,81.03
2023-04-16T09:38:17.338Z,78.41
2023-04-16T09:40:10.988Z,77.69
2023-04-16T09:42:06.185Z,76.46
2023-04-16T09:44:04.649Z,74.93
2023-04-16T09:45:57.529Z,74.85
2023-04-16T09:47:50.627Z,75.17
2023-04-16T09:49:44.401Z,74.03
2023-04-16T09:51:38.816Z,75.36
2023-04-16T09:53:32.420Z,74.55
2023-04-16T09:55:27.818Z,73.84
2023-04-16T09:57:22.570Z,73.17
2023-04-16T09:59:19.625Z,72.40
2023-04-16T10:01:13.454Z,71.31
2023-04-16T10:03:07.356Z,72.27
2023-04-16T10:05:04.298Z,72.86
2023-04-16T10:07:07.125Z,72.57
2023-04-16T10:09:00.028Z,73.28
2023-04-16T10:10:54.379Z,71.74
2023-04-16T10:12:47.470Z,71.10
2023-04-16T10:14:41.746Z,71.18
2023-04-16T10:16:35.565Z,72.27
2023-04-16T10:18:29.578Z,72.13
2023-04-16T10:20:24.456Z,71.47
2023-04-16T10:22:17.636Z,70.59
2023-04-16T10:24:11.290Z,70.75
2023-04-16T10:26:05.888Z,71.28
2023-04-16T10:28:00.176Z,71.71
2023-04-16T10:29:53.074Z,71.51
2023-04-16T10:31:47.797Z,71.58
2023-04-16T10:33:42.501Z,71.81
2023-04-16T10:35:40.523Z,71.96
2023-04-16T10:37:33.811Z,71.59
2023-04-16T10:39:29.682Z,72.59
2023-04-16T10:41:22.774Z,71.28
2023-04-16T10:43:19.822Z,71.12
2023-04-16T10:45:12.591Z,70.66
2023-04-16T10:47:13.110Z,70.19
2023-04-16T10:49:23.136Z,71.09
2023-04-16T10:51:28.163Z,69.56
2023-04-16T10:53:23.368Z,68.57
2023-04-16T10:55:17.548Z,67.25
2023-04-16T10:57:16.403Z,67.49
2023-04-16T10:59:11.554Z,67.66
2023-04-16T11:01:32.410Z,67.40
2023-04-16T11:03:26.077Z,66.26
2023-04-16T11:05:23.032Z,66.02
2023-04-16T11:07:19.470Z,65.81
2023-04-16T11:09:47.734Z,65.54
2023-04-16T11:11:41.004Z,65.36
2023-04-16T11:13:37.122Z,65.35
2023-04-16T11:15:31.650Z,65.66
2023-04-16T11:17:29.393Z,65.72
2023-04-16T11:19:22.311Z,66.31
2023-04-16T11:21:15.367Z,65.98
2023-04-16T11:23:11.254Z,66.02
2023-04-16T11:25:05.117Z,66.22
2023-04-16T11:26:58.100Z,66.76
2023-04-16T11:28:51.676Z,66.31
2023-04-16T11:30:45.058Z,66.76
2023-04-16T11:32:39.137Z,67.23
2023-04-16T11:34:33.373Z,67.24
2023-04-16T11:36:27.747Z,67.32
2023-04-16T11:38:21.223Z,67.42
2023-04-16T11:40:14.093Z,68.30
2023-04-16T11:42:07.129Z,67.29
2023-04-16T11:43:59.941Z,66.83
2023-04-16T11:46:02.575Z,68.06
2023-04-16T11:47:58.064Z,68.08
2023-04-16T11:49:51.355Z,68.09
2023-04-16T11:51:47.030Z,68.71
2023-04-16T11:53:48.110Z,69.01
2023-04-16T11:55:45.783Z,68.71
2023-04-16T11:57:38.774Z,68.62
2023-04-16T11:59:31.806Z,69.61
2023-04-16T12:01:24.652Z,70.36
2023-04-16T12:03:18.049Z,70.83
2023-04-16T12:05:28.986Z,70.58
2023-04-16T12:07:21.829Z,70.54
2023-04-16T12:09:26.246Z,71.09
2023-04-16T12:11:19.099Z,71.82
2023-04-16T12:13:16.753Z,72.12
2023-04-16T12:15:09.802Z,72.56
2023-04-16T12:17:21.608Z,72.55
2023-04-16T12:19:14.952Z,72.60
2023-04-16T12:21:08.408Z,72.52
2023-04-16T12:23:01.560Z,72.80
2023-04-16T12:25:04.943Z,73.26
2023-04-16T12:27:03.374Z,73.62
2023-04-16T12:29:14.915Z,74.34
2023-04-16T12:31:08.583Z,74.73
2023-04-16T12:33:16.055Z,74.86
2023-04-16T12:35:10.865Z,75.14
2023-04-16T12:37:07.705Z,74.99
2023-04-16T12:39:00.544Z,75.63
2023-04-16T12:40:56.976Z,75.63
2023-04-16T12:42:50.435Z,76.20
2023-04-16T12:44:43.291Z,76.23
2023-04-16T12:46:37.631Z,76.63
2023-04-16T12:48:32.551Z,76.71
2023-04-16T12:50:25.403Z,76.93
2023-04-16T12:52:18.247Z,77.12
2023-04-16T12:54:11.194Z,77.19
2023-04-16T12:56:04.245Z,77.28
2023-04-16T12:57:57.092Z,77.27
2023-04-16T12:59:50.051Z,77.98
2023-04-16T13:01:43.183Z,78.43
2023-04-16T13:03:37.442Z,78.36
2023-04-16T13:05:30.738Z,78.08
2023-04-16T13:07:24.988Z,78.00
2023-04-16T13:09:19.492Z,78.06
2023-04-16T13:11:13.054Z,78.51
2023-04-16T13:13:06.309Z,79.25
2023-04-16T13:14:59.266Z,78.45
2023-04-16T13:16:52.311Z,78.71
2023-04-16T13:18:45.256Z,78.99
2023-04-16T13:20:38.309Z,79.18
2023-04-16T13:22:31.256Z,80.02
2023-04-16T13:24:24.439Z,79.95
2023-04-16T13:26:17.564Z,79.55
2023-04-16T13:28:10.593Z,79.91
2023-04-16T13:30:03.666Z,80.52
2023-04-16T13:31:57.633Z,81.30
2023-04-16T13:33:50.902Z,80.83
2023-04-16T13:35:43.747Z,80.74
2023-04-16T13:37:36.581Z,80.38
2023-04-16T13:39:29.426Z,80.38
2023-04-16T13:41:22.386Z,80.22
2023-04-16T13:43:17.321Z,80.21
2023-04-16T13:45:10.332Z,79.75
2023-04-16T13:47:03.243Z,79.86
2023-04-16T13:48:56.474Z,79.27
2023-04-16T13:50:49.385Z,79.39
2023-04-16T13:52:42.149Z,79.89
2023-04-16T13:54:34.953Z,80.15
2023-04-16T13:56:28.105Z,79.24
2023-04-16T13:58:21.062Z,79.45
2023-04-16T14:00:15.531Z,79.26
2023-04-16T14:02:10.686Z,79.03
2023-04-16T14:04:06.626Z,78.59
2023-04-16T14:05:59.919Z,78.97
2023-04-16T14:07:52.865Z,78.50
2023-04-16T14:09:45.707Z,78.49
2023-04-16T14:11:38.670Z,77.96
2023-04-16T14:13:31.607Z,78.34
2023-04-16T14:15:26.808Z,77.11
2023-04-16T14:17:19.698Z,76.91
2023-04-16T14:19:13.406Z,77.03
2023-04-16T14:21:06.673Z,77.49
2023-04-16T14:22:59.517Z,78.12
2023-04-16T14:24:52.368Z,77.69
2023-04-16T14:26:46.983Z,77.43
2023-04-16T14:28:41.035Z,77.51
2023-04-16T14:30:33.870Z,77.77
2023-04-16T14:32:27.674Z,77.35
2023-04-16T14:34:20.995Z,77.40
2023-04-16T14:36:14.258Z,76.99
2023-04-16T14:38:07.201Z,76.97
2023-04-16T14:40:00.148Z,77.71
2023-04-16T14:41:52.987Z,78.22
2023-04-16T14:43:46.154Z,78.21
2023-04-16T14:45:39.176Z,78.40
2023-04-16T14:47:34.003Z,78.33
2023-04-16T14:49:26.940Z,78.47
2023-04-16T14:51:19.784Z,78.77
2023-04-16T14:53:12.731Z,78.98
2023-04-16T14:55:07.206Z,78.44
2023-04-16T14:57:00.673Z,78.05
2023-04-16T14:58:53.658Z,78.15
2023-04-16T15:00:46.570Z,79.70
2023-04-16T15:02:39.661Z,78.87
2023-04-16T15:04:33.176Z,77.89
2023-04-16T15:06:27.053Z,77.72
2023-04-16T15:08:19.901Z,77.36
2023-04-16T15:10:13.566Z,77.57
2023-04-16T15:12:06.514Z,77.63
2023-04-16T15:13:59.365Z,77.68
2023-04-16T15:15:52.411Z,77.31
2023-04-16T15:17:45.430Z,77.71
2023-04-16T15:19:38.815Z,77.38
2023-04-16T15:21:33.460Z,77.47
2023-04-16T15:23:26.878Z,77.68
2023-04-16T15:25:20.326Z,77.75
2023-04-16T15:27:14.917Z,78.25
2023-04-16T15:29:07.759Z,78.76
2023-04-16T15:31:00.734Z,78.63
2023-04-16T15:32:55.319Z,78.85
2023-04-16T15:34:49.016Z,78.77
2023-04-16T15:36:42.110Z,79.31
2023-04-16T15:38:34.962Z,79.23
2023-04-16T15:40:27.907Z,79.06
2023-04-16T15:42:21.615Z,78.78
2023-04-16T15:44:14.542Z,78.22
2023-04-16T15:46:08.882Z,78.00
2023-04-16T15:48:01.962Z,77.98
2023-04-16T15:49:55.105Z,78.22
2023-04-16T15:51:48.160Z,78.60
2023-04-16T15:53:42.435Z,79.12
2023-04-16T15:55:35.911Z,79.59
2023-04-16T15:57:29.048Z,80.02
2023-04-16T15:59:21.999Z,80.49
2023-04-16T16:01:14.971Z,80.94
2023-04-16T16:03:08.099Z,81.04
2023-04-16T16:05:01.134Z,81.27
2023-04-16T16:06:54.095Z,81.37
2023-04-16T16:08:47.046Z,81.84
2023-04-16T16:10:40.999Z,81.65
2023-04-16T16:12:34.379Z,81.84
2023-04-16T16:14:27.231Z,81.95
2023-04-16T16:16:21.823Z,82.15
2023-04-16T16:18:15.000Z,82.15
2023-04-16T16:20:10.941Z,82.00
2023-04-16T16:22:04.365Z,81.81
2023-04-16T16:23:58.009Z,82.30
2023-04-16T16:25:53.207Z,82.45
2023-04-16T16:27:46.266Z,82.61
2023-04-16T16:29:39.230Z,83.04
2023-04-16T16:31:32.721Z,83.20
2023-04-16T16:33:25.916Z,83.35
2023-04-16T16:35:19.807Z,83.71
2023-04-16T16:37:14.995Z,83.83
2023-04-16T16:39:08.232Z,84.21
2023-04-16T16:41:01.290Z,84.57
2023-04-16T16:42:54.274Z,84.51
2023-04-16T16:44:48.011Z,84.77
2023-04-16T16:46:41.343Z,84.92
2023-04-16T16:48:34.312Z,85.08
2023-04-16T16:50:27.164Z,85.29
2023-04-16T16:52:23.892Z,85.59
2023-04-16T16:54:16.759Z,85.55
2023-04-16T16:56:09.689Z,85.98
2023-04-16T16:58:03.269Z,85.99
2023-04-16T16:59:56.101Z,85.91
2023-04-16T17:01:48.964Z,86.63
2023-04-16T17:03:42.184Z,86.27
2023-04-16T17:05:35.768Z,86.32
2023-04-16T17:07:28.610Z,86.54
2023-04-16T17:09:21.457Z,86.84
2023-04-16T17:11:17.373Z,86.80
2023-04-16T17:13:10.639Z,86.89
2023-04-16T17:15:03.996Z,86.95
2023-04-16T17:16:56.951Z,87.04
2023-04-16T17:18:50.297Z,86.98
2023-04-16T17:20:43.142Z,87.28
2023-04-16T17:22:37.619Z,87.32
2023-04-16T17:24:30.575Z,87.18
2023-04-16T17:26:23.628Z,87.82
2023-04-16T17:28:16.499Z,87.84
2023-04-16T17:30:09.969Z,87.85
2023-04-16T17:32:03.794Z,87.85
2023-04-16T17:33:56.855Z,88.14
2023-04-16T17:35:49.907Z,88.23
2023-04-16T17:37:42.761Z,88.42
2023-04-16T17:39:36.104Z,88.66
2023-04-16T17:41:28.869Z,88.63
2023-04-16T17:43:21.794Z,88.92
2023-04-16T17:45:15.457Z,88.96
2023-04-16T17:47:08.303Z,88.74
2023-04-16T17:49:01.493Z,88.62
2023-04-16T17:50:54.632Z,88.55
2023-04-16T17:52:47.777Z,88.86
2023-04-16T17:54:40.712Z,88.95
2023-04-16T17:56:33.660Z,89.10
2023-04-16T17:58:26.807Z,88.90
2023-04-16T18:00:20.296Z,89.22
2023-04-16T18:02:13.345Z,89.26
2023-04-16T18:04:07.302Z,89.49
2023-04-16T18:06:01.569Z,89.28
2023-04-16T18:07:55.748Z,89.35
2023-04-16T18:09:48.597Z,89.38
2023-04-16T18:11:41.541Z,89.48
2023-04-16T18:13:35.206Z,89.73
2023-04-16T18:15:28.197Z,89.65
2023-04-16T18:17:22.857Z,89.66
2023-04-16T18:19:17.092Z,89.65
2023-04-16T18:21:12.300Z,89.89
2023-04-16T18:23:07.581Z,89.77
2023-04-16T18:25:01.761Z,89.66
2023-04-16T18:26:57.264Z,89.64
2023-04-16T18:28:51.417Z,89.63
2023-04-16T18:30:46.020Z,89.58
2023-04-16T18:32:59.867Z,89.65
2023-04-16T18:34:54.142Z,89.78
2023-04-16T18:36:48.199Z,89.65
2023-04-16T18:38:57.052Z,89.45
2023-04-16T18:40:54.250Z,89.49
2023-04-16T18:42:48.463Z,89.72
2023-04-16T18:44:42.828Z,89.69
2023-04-16T18:46:37.493Z,89.63
2023-04-16T18:48:32.529Z,89.52
2023-04-16T18:50:29.208Z,89.38
2023-04-16T18:52:26.104Z,89.39
2023-04-16T18:54:23.126Z,89.29
2023-04-16T18:56:16.246Z,89.51
2023-04-16T18:58:09.096Z,89.54
2023-04-16T19:00:06.763Z,89.37
2023-04-16T19:02:00.062Z,89.26
2023-04-16T19:03:53.563Z,89.28
2023-04-16T19:05:46.570Z,89.48
2023-04-16T19:07:40.127Z,89.18
2023-04-16T19:09:33.032Z,89.35
2023-04-16T19:11:25.988Z,89.41
2023-04-16T19:13:19.133Z,89.35
2023-04-16T19:15:12.401Z,89.28
2023-04-16T19:17:05.703Z,89.33
2023-04-16T19:19:02.595Z,89.46
2023-04-16T19:21:02.084Z,89.37
2023-04-16T19:22:55.148Z,89.53
2023-04-16T19:24:48.090Z,89.39
2023-04-16T19:26:41.241Z,89.64
2023-04-16T19:28:34.096Z,89.72
2023-04-16T19:30:31.130Z,89.63
2023-04-16T19:32:24.615Z,89.72
2023-04-16T19:34:17.546Z,89.61
2023-04-16T19:36:11.410Z,89.69
2023-04-16T19:38:05.415Z,89.67
2023-04-16T19:39:58.341Z,89.60
2023-04-16T19:41:52.096Z,89.71
2023-04-16T19:43:45.457Z,89.80
2023-04-16T19:45:47.488Z,90.01
2023-04-16T19:47:41.627Z,89.75
2023-04-16T19:49:35.563Z,89.79
2023-04-16T19:51:28.613Z,89.88
2023-04-16T19:53:27.603Z,90.05
2023-04-16T19:55:20.757Z,89.85
2023-04-16T19:57:14.729Z,89.83
2023-04-16T19:59:08.141Z,89.67
2023-04-16T20:01:01.224Z,89.93
2023-04-16T20:02:56.493Z,89.71
2023-04-16T20:04:50.163Z,89.70
2023-04-16T20:06:44.180Z,89.84
2023-04-16T20:08:38.768Z,89.99
2023-04-16T20:10:32.766Z,89.83
2023-04-16T20:12:26.097Z,90.03
2023-04-16T20:14:19.381Z,89.83
2023-04-16T20:16:13.613Z,89.87
2023-04-16T20:18:10.284Z,90.02
2023-04-16T20:20:07.410Z,90.15
2023-04-16T20:22:00.254Z,90.12
2023-04-16T20:23:53.100Z,90.03
2023-04-16T20:25:46.664Z,90.12
2023-04-16T20:27:39.939Z,90.18
2023-04-16T20:29:33.173Z,90.41
2023-04-16T20:31:27.252Z,90.22
2023-04-16T20:33:20.634Z,90.33
2023-04-16T20:35:14.914Z,90.29
2023-04-16T20:37:09.079Z,90.33
2023-04-16T20:39:08.215Z,90.45
2023-04-16T20:41:10.829Z,90.21
2023-04-16T20:43:03.680Z,90.20
2023-04-16T20:44:56.699Z,90.19
2023-04-16T20:46:51.019Z,90.41
2023-04-16T20:48:44.568Z,90.31
2023-04-16T20:50:37.519Z,90.21
2023-04-16T20:52:30.873Z,90.17
2023-04-16T20:54:23.831Z,90.19
2023-04-16T20:56:17.185Z,90.22
2023-04-16T20:58:10.029Z,90.43
2023-04-16T21:00:04.432Z,90.25
2023-04-16T21:01:58.065Z,89.99
2023-04-16T21:03:51.547Z,90.02
2023-04-16T21:05:50.105Z,89.83
2023-04-16T21:07:43.272Z,89.66
2023-04-16T21:09:36.317Z,89.91
2023-04-16T21:11:33.396Z,89.98
2023-04-16T21:13:26.835Z,90.07
2023-04-16T21:15:20.241Z,89.96
2023-04-16T21:17:14.150Z,90.23
2023-04-16T21:19:08.976Z,90.05
2023-04-16T21:21:02.286Z,90.42
2023-04-16T21:22:56.917Z,90.24
2023-04-16T21:24:49.854Z,90.28
2023-04-16T21:26:42.728Z,90.22
2023-04-16T21:28:35.636Z,90.36
2023-04-16T21:30:28.581Z,90.16
2023-04-16T21:32:21.441Z,90.34
2023-04-16T21:34:14.469Z,90.29
2023-04-16T21:36:07.681Z,90.44
2023-04-16T21:38:00.902Z,90.46
2023-04-16T21:39:53.743Z,90.30
2023-04-16T21:41:46.680Z,90.26
2023-04-16T21:43:39.628Z,90.18
2023-04-16T21:45:32.472Z,90.27
2023-04-16T21:47:25.535Z,90.18
2023-04-16T21:49:18.883Z,90.25
2023-04-16T21:51:11.922Z,90.09
2023-04-16T21:53:06.466Z,90.25
2023-04-16T21:55:00.763Z,90.36
2023-04-16T21:56:54.529Z,90.29
2023-04-16T21:58:47.821Z,90.31
2023-04-16T22:00:40.800Z,90.08
2023-04-16T22:02:34.244Z,90.33
2023-04-16T22:04:37.144Z,90.51
2023-04-16T22:06:30.408Z,90.68
2023-04-16T22:08:25.126Z,90.50
2023-04-16T22:10:18.411Z,90.66
2023-04-16T22:12:11.359Z,90.83
2023-04-16T22:14:08.409Z,90.83
2023-04-16T22:16:01.516Z,90.92
2023-04-16T22:17:54.837Z,90.93
2023-04-16T22:19:49.094Z,90.82
2023-04-16T22:21:41.944Z,91.03
2023-04-16T22:23:34.891Z,90.65
2023-04-16T22:25:27.936Z,90.84
2023-04-16T22:27:20.780Z,90.77
2023-04-16T22:29:13.947Z,90.84
2023-04-16T22:31:07.179Z,90.90
2023-04-16T22:33:00.138Z,90.77
2023-04-16T22:34:53.189Z,90.84
2023-04-16T22:36:46.134Z,90.88
2023-04-16T22:38:39.099Z,90.84
2023-04-16T22:40:32.170Z,90.74
2023-04-16T22:42:25.018Z,91.00
2023-04-16T22:44:17.824Z,90.69
2023-04-16T22:46:12.556Z,90.80
2023-04-16T22:48:05.418Z,90.90
2023-04-16T22:50:00.472Z,90.67
2023-04-16T22:51:53.409Z,90.66
2023-04-16T22:53:46.942Z,90.50
2023-04-16T22:55:40.838Z,90.66
2023-04-16T22:57:33.791Z,90.55
2023-04-16T22:59:26.733Z,90.50
2023-04-16T23:01:19.734Z,90.52
2023-04-16T23:03:12.948Z,90.53
2023-04-16T23:05:06.094Z,90.53
2023-04-16T23:06:59.041Z,90.67
2023-04-16T23:08:51.884Z,90.44
2023-04-16T23:10:44.750Z,90.60
2023-04-16T23:12:37.698Z,90.54
2023-04-16T23:14:31.754Z,90.48
2023-04-16T23:16:24.760Z,90.44
2023-04-16T23:18:17.860Z,90.34
2023-04-16T23:20:12.444Z,90.49
2023-04-16T23:22:05.401Z,90.49
2023-04-16T23:23:59.260Z,90.50
2023-04-16T23:25:53.743Z,90.36
2023-04-16T23:27:46.692Z,90.54
2023-04-16T23:29:39.640Z,90.64
2023-04-16T23:31:32.555Z,90.59
2023-04-16T23:33:25.659Z,90.43
2023-04-16T23:35:23.017Z,90.62
2023-04-16T23:37:16.041Z,90.65
2023-04-16T23:39:08.980Z,90.61
2023-04-16T23:41:01.933Z,90.74
2023-04-16T23:42:55.763Z,90.76
2023-04-16T23:44:48.961Z,90.81
2023-04-16T23:46:42.081Z,90.86
2023-04-16T23:48:35.060Z,90.86
2023-04-16T23:50:28.006Z,90.76
2023-04-16T23:52:20.958Z,90.84
2023-04-16T23:54:14.012Z,90.87
2023-04-16T23:56:07.952Z,90.95
2023-04-16T23:58:00.927Z,90.84
2023-04-16T23:59:53.775Z,91.08
